createdAt,value
2023-09-17T00:01:18.182Z,6.20
2023-09-17T00:03:45.201Z,6.05
2023-09-17T00:06:11.976Z,6.05
2023-09-17T00:08:39.628Z,5.50
2023-09-17T00:11:07.355Z,5.05
2023-09-17T00:13:34.221Z,5.70
2023-09-17T00:16:01.682Z,5.90
2023-09-17T00:18:29.278Z,5.70
2023-09-17T00:20:56.160Z,5.78
2023-09-17T00:23:22.966Z,6.28
2023-09-17T00:25:49.893Z,6.22
2023-09-17T00:28:16.726Z,5.50
2023-09-17T00:30:43.640Z,6.03
2023-09-17T00:33:10.491Z,6.13
2023-09-17T00:35:37.313Z,6.35
2023-09-17T00:38:04.687Z,6.47
2023-09-17T00:40:40.263Z,5.60
2023-09-17T00:43:07.912Z,6.00
2023-09-17T00:45:35.087Z,5.68
2023-09-17T00:48:03.488Z,5.80
2023-09-17T00:50:32.383Z,5.55
2023-09-17T00:53:00.128Z,5.28
2023-09-17T00:55:29.468Z,5.43
2023-09-17T00:57:57.492Z,5.47
2023-09-17T01:00:25.872Z,5.82
2023-09-17T01:02:54.112Z,5.53
2023-09-17T01:05:21.198Z,5.18
2023-09-17T01:07:49.083Z,5.38
2023-09-17T01:10:16.431Z,5.20
2023-09-17T01:12:43.977Z,5.20
2023-09-17T01:15:11.159Z,5.40
2023-09-17T01:17:38.453Z,5.60
2023-09-17T01:20:25.826Z,5.50
2023-09-17T01:22:57.613Z,4.97
2023-09-17T01:25:53.421Z,5.22
2023-09-17T01:28:21.140Z,4.88
2023-09-17T01:30:48.130Z,5.40
2023-09-17T01:33:14.939Z,5.50
2023-09-17T01:35:57.753Z,5.90
2023-09-17T01:38:32.871Z,5.57
2023-09-17T01:41:04.170Z,5.68
2023-09-17T01:43:32.088Z,5.22
2023-09-17T01:46:00.716Z,5.80
2023-09-17T01:48:29.061Z,5.82
2023-09-17T01:50:56.391Z,5.57
2023-09-17T01:53:24.145Z,5.18
2023-09-17T01:55:57.401Z,5.40
2023-09-17T01:58:24.847Z,5.07
2023-09-17T02:00:53.669Z,4.57
2023-09-17T02:03:20.913Z,4.80
2023-09-17T02:05:47.847Z,4.53
2023-09-17T02:08:14.650Z,5.07
2023-09-17T02:10:42.018Z,4.80
2023-09-17T02:13:08.848Z,5.30
2023-09-17T02:15:35.533Z,4.70
2023-09-17T02:18:02.409Z,5.50
2023-09-17T02:20:29.194Z,4.88
2023-09-17T02:22:55.908Z,4.75
2023-09-17T02:25:22.718Z,4.53
2023-09-17T02:27:49.777Z,4.93
2023-09-17T02:30:16.519Z,5.13
2023-09-17T02:32:43.440Z,4.72
2023-09-17T02:35:10.176Z,4.90
2023-09-17T02:37:37.426Z,5.10
2023-09-17T02:40:09.935Z,4.85
2023-09-17T02:42:37.929Z,4.97
2023-09-17T02:45:07.054Z,5.10
2023-09-17T02:47:36.725Z,5.63
2023-09-17T02:50:04.333Z,5.63
2023-09-17T02:52:31.098Z,5.07
2023-09-17T02:54:57.911Z,6.40
2023-09-17T02:57:24.726Z,5.90
2023-09-17T02:59:52.996Z,5.63
2023-09-17T03:02:21.136Z,6.50
2023-09-17T03:04:48.073Z,6.40
2023-09-17T03:07:18.331Z,6.50
2023-09-17T03:09:45.137Z,6.43
2023-09-17T03:12:12.336Z,6.68
2023-09-17T03:14:40.001Z,7.07
2023-09-17T03:17:06.931Z,6.65
2023-09-17T03:19:33.979Z,6.60
2023-09-17T03:22:02.622Z,6.88
2023-09-17T03:24:29.452Z,7.63
2023-09-17T03:26:56.165Z,7.28
2023-09-17T03:29:25.569Z,7.32
2023-09-17T03:31:53.505Z,7.40
2023-09-17T03:34:20.480Z,8.00
2023-09-17T03:36:47.234Z,7.70
2023-09-17T03:39:15.081Z,7.28
2023-09-17T03:41:42.119Z,7.97
2023-09-17T03:44:11.216Z,7.95
2023-09-17T03:46:39.296Z,7.57
2023-09-17T03:49:07.083Z,7.70
2023-09-17T03:51:34.265Z,9.48
2023-09-17T03:54:01.644Z,8.77
2023-09-17T03:56:28.540Z,10.57
2023-09-17T03:58:55.774Z,9.80
2023-09-17T04:01:22.834Z,9.25
2023-09-17T04:03:50.273Z,10.27
2023-09-17T04:06:17.293Z,10.18
2023-09-17T04:08:44.131Z,9.18
2023-09-17T04:11:16.714Z,9.57
2023-09-17T04:13:43.910Z,10.38
2023-09-17T04:16:11.134Z,9.95
2023-09-17T04:18:38.046Z,10.15
2023-09-17T04:21:04.971Z,10.10
2023-09-17T04:23:31.708Z,10.30
2023-09-17T04:25:58.593Z,11.50
2023-09-17T04:28:25.882Z,11.95
2023-09-17T04:30:52.646Z,10.75
2023-09-17T04:33:20.781Z,10.30
2023-09-17T04:35:47.520Z,9.93
2023-09-17T04:38:14.261Z,10.32
2023-09-17T04:40:41.904Z,9.95
2023-09-17T04:43:08.682Z,9.82
2023-09-17T04:45:40.231Z,9.80
2023-09-17T04:48:07.828Z,9.90
2023-09-17T04:50:35.379Z,10.07
2023-09-17T04:53:02.562Z,9.40
2023-09-17T04:55:29.262Z,9.90
2023-09-17T04:57:57.045Z,9.55
2023-09-17T05:00:23.793Z,9.95
2023-09-17T05:02:50.715Z,9.95
2023-09-17T05:05:21.049Z,10.40
2023-09-17T05:07:49.888Z,11.15
2023-09-17T05:10:17.941Z,12.10
2023-09-17T05:12:45.138Z,10.48
2023-09-17T05:15:12.839Z,10.57
2023-09-17T05:17:39.794Z,9.73
2023-09-17T05:20:07.871Z,8.75
2023-09-17T05:22:36.382Z,9.55
2023-09-17T05:25:05.136Z,8.93
2023-09-17T05:27:32.037Z,10.98
2023-09-17T05:30:00.697Z,9.73
2023-09-17T05:32:28.165Z,9.50
2023-09-17T05:34:57.762Z,9.55
2023-09-17T05:37:24.524Z,9.43
2023-09-17T05:39:51.352Z,11.52
2023-09-17T05:42:18.067Z,10.43
2023-09-17T05:44:44.849Z,9.82
2023-09-17T05:47:11.542Z,10.02
2023-09-17T05:49:38.376Z,11.15
2023-09-17T05:52:05.173Z,11.27
2023-09-17T05:54:31.939Z,10.75
2023-09-17T05:56:58.655Z,11.52
2023-09-17T05:59:25.378Z,11.00
2023-09-17T06:01:52.133Z,11.25
2023-09-17T06:04:18.871Z,11.25
2023-09-17T06:06:45.562Z,12.57
2023-09-17T06:09:12.314Z,11.57
2023-09-17T06:11:39.067Z,11.55
2023-09-17T06:14:06.006Z,12.85
2023-09-17T06:16:46.230Z,12.60
2023-09-17T06:19:19.714Z,12.30
2023-09-17T06:21:46.414Z,11.25
2023-09-17T06:24:13.110Z,12.35
2023-09-17T06:26:39.820Z,12.45
2023-09-17T06:29:06.575Z,12.20
2023-09-17T06:31:33.497Z,12.10
2023-09-17T06:34:00.352Z,12.70
2023-09-17T06:36:29.424Z,13.13
2023-09-17T06:38:56.559Z,13.43
2023-09-17T06:41:23.255Z,13.82
2023-09-17T06:43:50.292Z,12.80
2023-09-17T06:46:17.677Z,13.23
2023-09-17T06:48:45.216Z,12.55
2023-09-17T06:51:11.933Z,12.85
2023-09-17T06:53:38.700Z,12.35
2023-09-17T06:56:05.788Z,12.05
2023-09-17T06:58:32.574Z,12.70
2023-09-17T07:00:59.415Z,11.23
2023-09-17T07:03:26.132Z,11.07
2023-09-17T07:05:52.808Z,11.63
2023-09-17T07:08:19.622Z,11.10
2023-09-17T07:10:46.448Z,10.88
2023-09-17T07:13:13.362Z,11.43
2023-09-17T07:15:40.154Z,10.38
2023-09-17T07:18:11.802Z,12.23
2023-09-17T07:20:38.730Z,11.38
2023-09-17T07:23:05.860Z,10.57
2023-09-17T07:25:33.195Z,10.18
2023-09-17T07:28:06.058Z,9.95
2023-09-17T07:30:35.990Z,10.02
2023-09-17T07:33:05.165Z,10.48
2023-09-17T07:35:33.810Z,9.30
2023-09-17T07:38:00.795Z,9.32
2023-09-17T07:40:27.845Z,9.40
2023-09-17T07:42:54.676Z,8.00
2023-09-17T07:45:21.458Z,9.18
2023-09-17T07:47:48.299Z,10.43
2023-09-17T07:50:16.936Z,8.52
2023-09-17T07:52:43.689Z,8.40
2023-09-17T07:55:10.792Z,9.15
2023-09-17T07:57:37.540Z,7.93
2023-09-17T08:00:05.679Z,6.63
2023-09-17T08:02:32.649Z,6.82
2023-09-17T08:04:59.733Z,6.40
2023-09-17T08:07:26.590Z,5.93
2023-09-17T08:09:53.368Z,6.35
2023-09-17T08:12:20.085Z,6.00
2023-09-17T08:14:47.334Z,5.35
2023-09-17T08:17:14.283Z,5.72
2023-09-17T08:19:41.114Z,6.32
2023-09-17T08:22:07.864Z,5.68
2023-09-17T08:24:34.585Z,6.30
2023-09-17T08:27:01.746Z,5.97
2023-09-17T08:29:29.501Z,5.60
2023-09-17T08:31:56.333Z,5.45
2023-09-17T08:34:23.094Z,6.18
2023-09-17T08:36:49.824Z,5.03
2023-09-17T08:39:16.534Z,5.10
2023-09-17T08:41:44.130Z,5.03
2023-09-17T08:44:11.324Z,4.63
2023-09-17T08:46:39.810Z,4.70
2023-09-17T08:49:06.762Z,5.30
2023-09-17T08:51:38.219Z,5.20
2023-09-17T08:54:18.626Z,4.85
2023-09-17T08:56:46.487Z,4.60
2023-09-17T08:59:31.077Z,4.50
2023-09-17T09:02:05.741Z,3.95
2023-09-17T09:04:36.149Z,6.22
2023-09-17T09:07:04.081Z,5.40
2023-09-17T09:09:32.402Z,5.45
2023-09-17T09:12:00.153Z,5.45
2023-09-17T09:14:27.096Z,5.28
2023-09-17T09:16:53.909Z,5.20
2023-09-17T09:19:20.686Z,5.05
2023-09-17T09:21:47.408Z,4.60
2023-09-17T09:24:14.191Z,4.53
2023-09-17T09:26:41.291Z,4.30
2023-09-17T09:29:09.694Z,4.28
2023-09-17T09:31:37.005Z,4.35
2023-09-17T09:34:05.388Z,4.53
2023-09-17T09:36:34.142Z,4.60
2023-09-17T09:39:02.992Z,4.28
2023-09-17T09:41:34.497Z,4.30
2023-09-17T09:44:01.602Z,3.88
2023-09-17T09:46:29.819Z,4.18
2023-09-17T09:49:02.170Z,4.00
2023-09-17T09:51:31.170Z,4.30
2023-09-17T09:53:58.326Z,3.80
2023-09-17T09:56:29.354Z,3.72
2023-09-17T09:58:57.277Z,3.90
2023-09-17T10:01:24.462Z,3.55
2023-09-17T10:03:52.454Z,3.70
2023-09-17T10:06:20.361Z,3.33
2023-09-17T10:08:47.815Z,3.60
2023-09-17T10:11:17.077Z,3.47
2023-09-17T10:13:44.131Z,3.10
2023-09-17T10:16:11.896Z,3.08
2023-09-17T10:18:39.674Z,2.90
2023-09-17T10:21:07.059Z,3.03
2023-09-17T10:23:35.172Z,3.50
2023-09-17T10:26:04.396Z,3.85
2023-09-17T10:28:35.661Z,3.38
2023-09-17T10:31:03.855Z,4.05
2023-09-17T10:33:34.901Z,3.08
2023-09-17T10:36:05.224Z,3.67
2023-09-17T10:38:35.922Z,3.78
2023-09-17T10:41:05.830Z,3.03
2023-09-17T10:43:36.524Z,2.78
2023-09-17T10:46:07.164Z,2.60
2023-09-17T10:48:35.070Z,2.83
2023-09-17T10:51:15.005Z,2.78
2023-09-17T10:53:43.933Z,2.60
2023-09-17T10:56:12.028Z,2.65
2023-09-17T10:58:47.389Z,2.80
2023-09-17T11:01:16.583Z,2.80
2023-09-17T11:03:51.349Z,3.20
2023-09-17T11:06:25.269Z,3.17
2023-09-17T11:08:55.813Z,3.00
2023-09-17T11:11:25.007Z,2.67
2023-09-17T11:13:53.780Z,3.03
2023-09-17T11:16:22.251Z,2.60
2023-09-17T11:19:13.286Z,2.72
2023-09-17T11:22:13.333Z,2.67
2023-09-17T11:24:41.600Z,2.55
2023-09-17T11:27:10.174Z,2.30
2023-09-17T11:29:41.728Z,2.35
2023-09-17T11:32:09.134Z,2.10
2023-09-17T11:34:37.926Z,1.88
2023-09-17T11:37:06.184Z,2.10
2023-09-17T11:39:37.564Z,2.30
2023-09-17T11:42:07.275Z,1.88
2023-09-17T11:44:36.043Z,2.08
2023-09-17T11:47:04.245Z,1.65
2023-09-17T11:49:32.266Z,2.00
2023-09-17T11:52:00.819Z,1.50
2023-09-17T11:54:35.200Z,1.50
2023-09-17T11:59:29.590Z,1.85
2023-09-17T12:01:58.572Z,1.73
2023-09-17T12:04:28.059Z,1.77
2023-09-17T12:06:55.352Z,2.00
2023-09-17T12:09:38.957Z,2.03
2023-09-17T12:12:06.723Z,1.90
2023-09-17T12:14:34.207Z,1.75
2023-09-17T12:17:05.472Z,1.90
2023-09-17T12:19:32.974Z,1.90
2023-09-17T12:22:01.151Z,2.00
2023-09-17T12:24:50.955Z,1.80
2023-09-17T12:27:36.514Z,1.70
2023-09-17T12:30:07.152Z,1.90
2023-09-17T12:32:37.896Z,1.60
2023-09-17T12:35:07.197Z,1.52
2023-09-17T12:37:34.014Z,1.60
2023-09-17T12:40:00.885Z,1.70
2023-09-17T12:42:28.932Z,1.70
2023-09-17T12:44:55.788Z,1.70
2023-09-17T12:47:24.280Z,1.60
2023-09-17T12:49:54.064Z,1.48
2023-09-17T13:06:54.183Z,1.40
2023-09-17T13:54:05.769Z,1.30
2023-09-17T13:57:32.166Z,1.48
2023-09-17T14:00:14.190Z,1.42
2023-09-17T14:03:29.030Z,1.05
2023-09-17T14:05:56.183Z,1.20
2023-09-17T14:09:26.568Z,1.20
2023-09-17T14:15:12.594Z,1.30
2023-09-17T14:17:39.336Z,1.20
2023-09-17T14:20:06.689Z,1.20
2023-09-17T14:22:33.472Z,1.10
2023-09-17T14:25:00.241Z,1.50
2023-09-17T14:27:26.972Z,1.30
2023-09-17T14:29:53.744Z,1.45
2023-09-17T14:32:23.566Z,1.20
2023-09-17T14:34:55.520Z,1.20
2023-09-17T14:37:25.248Z,1.40
2023-09-17T14:39:52.416Z,1.40
2023-09-17T14:42:20.232Z,1.20
2023-09-17T14:44:46.927Z,1.30
2023-09-17T14:47:13.771Z,1.27
2023-09-17T14:49:40.594Z,1.60
2023-09-17T14:52:07.393Z,1.30
2023-09-17T14:54:34.271Z,1.40
2023-09-17T14:57:01.075Z,1.63
2023-09-17T14:59:28.465Z,1.20
2023-09-17T15:02:01.152Z,1.10
2023-09-17T15:04:31.485Z,1.10
2023-09-17T15:06:58.813Z,1.50
2023-09-17T15:09:26.940Z,1.20
2023-09-17T15:11:54.361Z,1.42
2023-09-17T15:14:21.123Z,1.30
2023-09-17T15:16:47.906Z,1.23
2023-09-17T15:19:14.780Z,1.15
2023-09-17T15:21:41.585Z,1.40
2023-09-17T15:24:08.552Z,1.30
2023-09-17T15:26:36.376Z,1.15
2023-09-17T15:29:04.593Z,1.23
2023-09-17T15:31:37.205Z,1.27
2023-09-17T15:34:04.743Z,1.17
2023-09-17T15:36:32.747Z,1.10
2023-09-17T15:38:59.543Z,1.30
2023-09-17T15:41:29.662Z,1.00
2023-09-17T15:43:56.700Z,1.40
2023-09-17T15:46:24.014Z,1.13
2023-09-17T15:48:51.502Z,1.30
2023-09-17T15:51:19.331Z,1.08
2023-09-17T15:53:46.056Z,1.20
2023-09-17T15:56:12.846Z,1.00
2023-09-17T15:58:39.638Z,1.20
2023-09-17T16:01:06.386Z,1.00
2023-09-17T16:03:33.220Z,1.10
2023-09-17T16:06:01.135Z,1.08
2023-09-17T16:08:27.950Z,1.10
2023-09-17T16:10:54.735Z,1.20
2023-09-17T16:13:21.486Z,1.25
2023-09-17T16:15:51.778Z,0.98
2023-09-17T16:18:18.918Z,1.23
2023-09-17T16:20:45.797Z,1.30
2023-09-17T16:23:12.516Z,1.30
2023-09-17T16:25:39.889Z,1.27
2023-09-17T16:28:07.076Z,1.00
2023-09-17T16:30:33.797Z,1.10
2023-09-17T16:33:00.543Z,1.30
2023-09-17T16:35:27.393Z,1.02
2023-09-17T16:37:54.161Z,1.33
2023-09-17T16:40:21.184Z,1.10
2023-09-17T16:43:01.698Z,0.90
2023-09-17T16:45:32.863Z,1.20
2023-09-17T16:47:59.792Z,1.50
2023-09-17T16:50:29.404Z,1.30
2023-09-17T16:52:56.704Z,1.35
2023-09-17T16:55:23.545Z,1.20
2023-09-17T16:57:50.282Z,1.33
2023-09-17T17:00:17.166Z,1.30
2023-09-17T17:02:44.150Z,1.60
2023-09-17T17:05:11.160Z,1.80
2023-09-17T17:07:38.049Z,1.30
2023-09-17T17:10:05.458Z,1.40
2023-09-17T17:12:32.216Z,1.30
2023-09-17T17:14:58.890Z,1.23
2023-09-17T17:17:25.858Z,1.30
2023-09-17T17:19:52.728Z,1.40
2023-09-17T17:22:19.527Z,1.50
2023-09-17T17:24:46.222Z,1.42
2023-09-17T17:27:14.057Z,1.60
2023-09-17T17:29:40.743Z,1.77
2023-09-17T17:32:07.472Z,1.80
2023-09-17T17:34:34.226Z,1.88
2023-09-17T17:37:05.177Z,1.77
2023-09-17T17:39:31.929Z,1.60
2023-09-17T17:41:58.766Z,1.90
2023-09-17T17:44:25.543Z,1.90
2023-09-17T17:46:52.387Z,2.20
2023-09-17T17:49:19.295Z,2.10
2023-09-17T17:51:46.055Z,1.85
2023-09-17T17:54:12.768Z,1.92
2023-09-17T17:56:39.503Z,2.00
2023-09-17T17:59:06.363Z,2.00
2023-09-17T18:01:33.304Z,2.08
2023-09-17T18:04:00.068Z,2.10
2023-09-17T18:06:26.815Z,2.00
2023-09-17T18:08:53.621Z,2.08
2023-09-17T18:11:21.574Z,1.95
2023-09-17T18:13:49.332Z,2.17
2023-09-17T18:16:16.207Z,1.90
2023-09-17T18:18:42.994Z,2.20
2023-09-17T18:21:10.685Z,2.03
2023-09-17T18:23:38.568Z,2.10
2023-09-17T18:26:05.383Z,2.17
2023-09-17T18:28:33.080Z,2.25
2023-09-17T18:30:59.917Z,2.15
2023-09-17T18:33:26.699Z,2.00
2023-09-17T18:35:56.877Z,2.10
2023-09-17T18:38:25.858Z,2.50
2023-09-17T18:40:52.619Z,2.67
2023-09-17T18:43:19.385Z,2.38
2023-09-17T18:45:46.717Z,2.38
2023-09-17T18:48:14.698Z,2.47
2023-09-17T18:50:41.885Z,2.60
2023-09-17T18:53:08.666Z,2.70
2023-09-17T18:55:35.474Z,2.40
2023-09-17T18:58:02.170Z,2.40
2023-09-17T19:00:29.100Z,2.30
2023-09-17T19:02:55.887Z,2.40
2023-09-17T19:05:22.755Z,2.50
2023-09-17T19:07:49.881Z,2.63
2023-09-17T19:10:16.728Z,2.20
2023-09-17T19:12:43.513Z,2.63
2023-09-17T19:15:10.869Z,2.70
2023-09-17T19:17:37.799Z,2.80
2023-09-17T19:20:05.807Z,2.95
2023-09-17T19:22:32.626Z,2.67
2023-09-17T19:24:59.390Z,2.70
2023-09-17T19:27:26.131Z,2.75
2023-09-17T19:29:52.867Z,2.80
2023-09-17T19:32:20.810Z,2.40
2023-09-17T19:34:47.883Z,2.63
2023-09-17T19:37:15.450Z,3.05
2023-09-17T19:39:42.240Z,2.70
2023-09-17T19:42:09.024Z,3.13
2023-09-17T19:44:35.795Z,3.30
2023-09-17T19:47:02.798Z,3.35
2023-09-17T19:49:29.540Z,2.80
2023-09-17T19:51:56.324Z,2.60
2023-09-17T19:54:23.187Z,2.70
2023-09-17T19:56:49.997Z,2.85
2023-09-17T19:59:16.786Z,2.60
2023-09-17T20:01:47.500Z,2.60
2023-09-17T20:04:15.625Z,2.83
2023-09-17T20:06:53.601Z,2.90
2023-09-17T20:09:22.066Z,2.72
2023-09-17T20:11:49.210Z,2.75
2023-09-17T20:14:16.138Z,2.90
2023-09-17T20:16:42.945Z,3.03
2023-09-17T20:19:09.698Z,3.33
2023-09-17T20:21:36.451Z,3.17
2023-09-17T20:24:03.487Z,3.40
2023-09-17T20:26:30.174Z,3.30
2023-09-17T20:28:59.572Z,3.08
2023-09-17T20:31:26.368Z,3.00
2023-09-17T20:33:54.684Z,3.00
2023-09-17T20:36:21.371Z,3.60
2023-09-17T20:38:50.642Z,3.28
2023-09-17T20:41:17.908Z,3.47
2023-09-17T20:43:44.785Z,3.50
2023-09-17T20:46:11.631Z,2.97
2023-09-17T20:48:38.392Z,3.15
2023-09-17T20:51:05.512Z,3.30
2023-09-17T20:53:33.329Z,3.30
2023-09-17T20:56:02.276Z,3.10
2023-09-17T20:58:29.088Z,3.72
2023-09-17T21:00:55.826Z,3.00
2023-09-17T21:03:22.707Z,3.10
2023-09-17T21:05:50.463Z,3.20
2023-09-17T21:08:17.577Z,3.28
2023-09-17T21:10:44.558Z,3.03
2023-09-17T21:13:12.149Z,3.22
2023-09-17T21:15:39.724Z,3.00
2023-09-17T21:18:07.591Z,3.20
2023-09-17T21:20:34.611Z,3.67
2023-09-17T21:23:01.568Z,3.22
2023-09-17T21:25:29.027Z,3.83
2023-09-17T21:27:55.788Z,3.40
2023-09-17T21:30:23.240Z,3.70
2023-09-17T21:32:50.416Z,3.53
2023-09-17T21:35:17.505Z,3.38
2023-09-17T21:37:44.552Z,3.70
2023-09-17T21:40:12.481Z,3.80
2023-09-17T21:42:39.247Z,3.67
2023-09-17T21:45:06.623Z,3.42
2023-09-17T21:47:33.468Z,3.70
2023-09-17T21:50:01.204Z,3.60
2023-09-17T21:52:32.202Z,3.70
2023-09-17T21:54:59.242Z,3.97
2023-09-17T21:57:26.068Z,3.80
2023-09-17T21:59:53.427Z,3.90
2023-09-17T22:02:20.461Z,4.20
2023-09-17T22:04:47.545Z,3.47
2023-09-17T22:07:14.574Z,3.92
2023-09-17T22:09:41.374Z,3.53
2023-09-17T22:12:08.707Z,3.70
2023-09-17T22:14:36.173Z,3.95
2023-09-17T22:17:03.397Z,3.80
2023-09-17T22:19:31.389Z,3.72
2023-09-17T22:21:58.470Z,3.60
2023-09-17T22:24:30.284Z,4.28
2023-09-17T22:26:57.006Z,4.10
2023-09-17T22:29:23.748Z,3.70
2023-09-17T22:31:50.610Z,3.67
2023-09-17T22:34:17.339Z,3.40
2023-09-17T22:36:44.140Z,3.58
2023-09-17T22:39:10.852Z,3.50
2023-09-17T22:41:37.588Z,3.70
2023-09-17T22:44:21.063Z,4.10
2023-09-17T22:46:50.019Z,3.67
2023-09-17T22:49:16.734Z,3.75
2023-09-17T22:51:43.424Z,3.67
2023-09-17T22:54:10.236Z,3.40
2023-09-17T22:56:37.040Z,3.50
2023-09-17T22:59:04.319Z,3.97
2023-09-17T23:01:31.545Z,3.80
2023-09-17T23:03:58.362Z,3.60
2023-09-17T23:06:25.701Z,3.80
2023-09-17T23:08:54.248Z,3.38
2023-09-17T23:11:21.362Z,3.67
2023-09-17T23:13:48.236Z,3.50
2023-09-17T23:16:16.501Z,3.38
2023-09-17T23:18:43.467Z,3.90
2023-09-17T23:21:10.312Z,3.78
2023-09-17T23:23:37.096Z,3.50
2023-09-17T23:26:04.953Z,3.72
2023-09-17T23:28:38.917Z,4.05
2023-09-17T23:31:05.731Z,3.80
2023-09-17T23:33:34.065Z,3.67
2023-09-17T23:36:03.555Z,4.00
2023-09-17T23:38:31.257Z,3.88
2023-09-17T23:40:58.186Z,3.88
2023-09-17T23:43:25.549Z,3.72
2023-09-17T23:45:52.934Z,3.65
2023-09-17T23:48:19.763Z,3.50
2023-09-17T23:50:46.797Z,4.10
2023-09-17T23:53:13.514Z,4.30
2023-09-17T23:55:40.573Z,3.85
2023-09-17T23:58:07.266Z,3.75
